Time;durP1;ratioP1;P1;durP2;ratioP2;P2;SDS_P1;SDS_P2;PMS_P1;PMS_P2;Temp;Humidity;BMP_temperature;BMP_pressure;BME280_temperature;BME280_humidity;BME280_pressure;Samples;Min_cycle;Max_cycle;Signal;HPM_P1;HPM_P2
2022/11/08 00:01:31;;;;;;;4.72;1.13;;;;;;;13.46;51.74;100831.22;4977875;28;20093;-51
2022/11/08 00:03:59;;;;;;;8.02;0.70;;;;;;;13.33;51.46;100825.19;4982935;28;20038;-47
2022/11/08 00:14:39;;;;;;;5.78;1.02;;;;;;;13.09;53.06;100824.97;4982875;28;20062;-49
2022/11/08 00:17:05;;;;;;;4.05;1.00;;;;;;;13.09;53.72;100818.78;4985024;28;20027;-49
2022/11/08 00:19:31;;;;;;;4.88;1.02;;;;;;;13.12;53.69;100813.78;4987490;28;20022;-47
2022/11/08 00:21:57;;;;;;;5.95;1.27;;;;;;;13.14;53.57;100821.63;4987813;28;20026;-48
2022/11/08 00:24:24;;;;;;;3.50;1.00;;;;;;;13.15;53.99;100817.88;4989349;28;20041;-49
2022/11/08 00:26:50;;;;;;;8.32;1.20;;;;;;;13.24;54.04;100821.13;4986850;28;20030;-48
2022/11/08 00:29:16;;;;;;;7.30;1.10;;;;;;;13.25;54.21;100815.53;4991747;28;20136;-47
2022/11/08 00:31:43;;;;;;;3.65;1.33;;;;;;;13.10;54.63;100820.41;4991798;28;20022;-50
2022/11/08 00:34:09;;;;;;;3.92;1.05;;;;;;;13.10;54.95;100815.88;4991490;28;20049;-48
2022/11/08 00:36:36;;;;;;;6.75;1.23;;;;;;;13.06;54.60;100824.63;4992339;28;20133;-46
2022/11/08 00:39:02;;;;;;;4.75;1.02;;;;;;;13.03;54.24;100823.19;4992068;28;20049;-47
2022/11/08 00:41:28;;;;;;;4.78;1.05;;;;;;;12.97;53.85;100813.31;4992267;28;20037;-47
2022/11/08 00:43:54;;;;;;;4.30;1.23;;;;;;;13.08;54.01;100817.13;4992025;28;20022;-47
2022/11/08 00:46:20;;;;;;;4.65;1.05;;;;;;;13.10;55.01;100820.41;4992193;28;20030;-50
2022/11/08 00:48:47;;;;;;;4.03;1.38;;;;;;;13.03;56.50;100822.34;4990332;28;20046;-50
2022/11/08 00:51:13;;;;;;;7.03;1.42;;;;;;;13.01;56.41;100821.78;4994652;28;20105;-51
2022/11/08 00:53:40;;;;;;;5.40;1.23;;;;;;;12.98;56.56;100816.81;4994559;28;20085;-47
2022/11/08 00:56:09;;;;;;;5.13;1.25;;;;;;;13.02;56.22;100824.22;4991526;28;20077;-51
2022/11/08 00:58:36;;;;;;;5.05;1.30;;;;;;;12.94;57.58;100825.34;4994298;28;20030;-52
2022/11/08 01:01:16;;;;;;;11.00;1.65;;;;;;;12.91;59.24;100822.28;4977387;28;20105;-47
2022/11/08 01:03:42;;;;;;;3.50;0.98;;;;;;;12.98;60.98;100827.56;4992136;28;20027;-52
2022/11/08 01:06:10;;;;;;;3.75;1.27;;;;;;;12.86;61.37;100820.25;4995624;28;20026;-51
2022/11/08 01:08:37;;;;;;;6.47;1.23;;;;;;;12.74;61.88;100813.97;4995494;28;20027;-52
2022/11/08 01:11:06;;;;;;;8.52;1.63;;;;;;;12.71;61.80;100821.63;4995617;28;20022;-51
2022/11/08 01:13:33;;;;;;;3.22;1.00;;;;;;;12.74;61.90;100807.78;4994029;28;20046;-47
2022/11/08 01:16:06;;;;;;;5.28;1.25;;;;;;;12.67;62.08;100815.91;4995236;28;20026;-51
2022/11/08 01:18:33;;;;;;;4.15;1.10;;;;;;;12.55;62.78;100813.09;4995037;28;20033;-49
2022/11/08 01:21:01;;;;;;;4.93;1.30;;;;;;;12.53;62.58;100819.72;4995397;28;20033;-49
2022/11/08 01:23:27;;;;;;;3.58;1.27;;;;;;;12.56;62.30;100812.06;4995275;28;20431;-52
2022/11/08 01:25:54;;;;;;;4.63;1.27;;;;;;;12.56;62.44;100814.75;4994868;28;20026;-48
2022/11/08 01:28:20;;;;;;;5.50;1.20;;;;;;;12.33;62.93;100812.66;4995096;28;20081;-51
2022/11/08 01:30:47;;;;;;;4.35;1.20;;;;;;;12.30;62.96;100815.75;4995180;28;20030;-51
2022/11/08 01:33:14;;;;;;;5.97;1.30;;;;;;;12.30;63.03;100815.75;4984197;28;20439;-52
2022/11/08 01:35:43;;;;;;;11.00;1.20;;;;;;;12.35;63.28;100823.16;4975071;28;20035;-48
2022/11/08 01:38:09;;;;;;;7.00;1.42;;;;;;;12.40;62.51;100820.66;4975214;28;20023;-49
2022/11/08 01:40:45;;;;;;;3.08;1.33;;;;;;;12.38;62.34;100823.56;4975165;28;20120;-50
2022/11/08 01:43:29;;;;;;;5.00;1.15;;;;;;;12.42;62.64;100830.13;4986216;28;20029;-50
2022/11/08 01:46:17;;;;;;;6.40;1.30;;;;;;;12.35;62.95;100825.84;4991565;28;20041;-48
2022/11/08 01:49:01;;;;;;;4.72;1.27;;;;;;;12.17;63.20;100821.25;4990248;28;20038;-50
2022/11/08 01:51:33;;;;;;;6.90;1.50;;;;;;;12.11;63.67;100827.47;4974672;28;20038;-51
2022/11/08 01:54:04;;;;;;;6.03;1.17;;;;;;;12.07;63.68;100826.25;4988762;28;20034;-52
2022/11/08 01:56:30;;;;;;;5.57;1.10;;;;;;;12.11;63.63;100833.66;4994586;28;20423;-52
2022/11/08 01:58:58;;;;;;;5.20;1.23;;;;;;;12.07;63.54;100829.75;4993852;28;20046;-47
2022/11/08 02:01:24;;;;;;;3.22;1.10;;;;;;;12.11;63.15;100827.47;4993359;28;20026;-49
2022/11/08 02:03:50;;;;;;;4.18;1.02;;;;;;;11.97;63.04;100826.72;4993809;28;20105;-48
2022/11/08 02:06:17;;;;;;;5.13;1.25;;;;;;;12.03;63.68;100833.09;4993509;28;20479;-48
2022/11/08 02:08:44;;;;;;;5.28;1.13;;;;;;;12.02;64.66;100828.75;4994369;28;20521;-51
2022/11/08 02:11:14;;;;;;;3.03;0.93;;;;;;;12.01;64.85;100837.84;4987750;28;20023;-48
2022/11/08 02:13:41;;;;;;;4.53;1.60;;;;;;;12.02;65.17;100834.13;4974442;28;20023;-49
2022/11/08 02:16:15;;;;;;;6.18;1.20;;;;;;;12.09;64.89;100840.25;4977001;28;20102;-47
2022/11/08 02:18:43;;;;;;;5.20;1.38;;;;;;;11.86;65.74;100835.44;4994403;28;20147;-48
2022/11/08 02:21:31;;;;;;;5.38;1.00;;;;;;;11.82;66.01;100835.03;4994221;28;20030;-48
2022/11/08 02:24:00;;;;;;;6.10;1.35;;;;;;;11.85;65.73;100831.13;4992055;28;20038;-48
2022/11/08 02:26:32;;;;;;;3.28;1.40;;;;;;;11.84;65.75;100829.47;4993540;28;20542;-51
2022/11/08 02:28:59;;;;;;;5.88;1.05;;;;;;;11.80;65.51;100831.72;4993838;28;20038;-50
2022/11/08 02:31:25;;;;;;;5.28;1.40;;;;;;;11.66;65.92;100824.81;4993711;28;20030;-48
2022/11/08 02:33:51;;;;;;;4.97;1.17;;;;;;;11.62;65.89;100835.13;4993356;28;20475;-48
2022/11/08 02:36:21;;;;;;;3.78;1.25;;;;;;;11.58;66.12;100833.91;4993565;28;20034;-49
2022/11/08 02:38:56;;;;;;;5.70;1.20;;;;;;;11.55;66.29;100836.19;4980111;28;20066;-47
2022/11/08 02:41:22;;;;;;;3.63;1.25;;;;;;;11.61;65.94;100827.31;4980759;28;20088;-51
2022/11/08 02:43:49;;;;;;;4.55;0.95;;;;;;;11.66;65.39;100834.69;4987058;28;20027;-48
2022/11/08 02:46:15;;;;;;;4.82;1.20;;;;;;;11.68;65.93;100833.44;4974172;28;20061;-52
2022/11/08 02:48:41;;;;;;;4.78;1.40;;;;;;;11.75;66.23;100823.50;4988237;28;20042;-52
2022/11/08 02:51:07;;;;;;;1.85;0.90;;;;;;;11.72;66.80;100834.66;4992897;28;20022;-49
2022/11/08 02:53:33;;;;;;;5.13;1.10;;;;;;;11.69;66.35;100827.03;4993259;28;20034;-49
2022/11/08 02:56:00;;;;;;;6.00;1.00;;;;;;;11.66;66.05;100821.28;4986659;28;20034;-51
2022/11/08 02:58:26;;;;;;;2.75;1.10;;;;;;;11.52;66.66;100820.53;4974169;28;20034;-48
2022/11/08 03:00:53;;;;;;;5.28;1.00;;;;;;;11.57;67.12;100826.06;4977128;28;20022;-50
2022/11/08 03:03:19;;;;;;;5.00;1.27;;;;;;;11.55;69.02;100820.13;4973675;28;20046;-50
2022/11/08 03:05:46;;;;;;;4.57;1.05;;;;;;;11.57;70.10;100818.03;4990144;28;20034;-51
2022/11/08 03:08:13;;;;;;;4.07;0.95;;;;;;;11.53;70.83;100822.97;4992366;28;20030;-47
2022/11/08 03:10:39;;;;;;;6.03;1.20;;;;;;;11.53;71.45;100830.22;4992940;28;20026;-52
2022/11/08 03:13:06;;;;;;;3.75;0.90;;;;;;;11.55;71.35;100814.75;4992229;28;20026;-49
2022/11/08 03:15:32;;;;;;;2.33;0.90;;;;;;;11.50;71.28;100812.69;4987371;28;20482;-49
2022/11/08 03:18:01;;;;;;;2.40;0.80;;;;;;;11.66;70.42;100814.09;4993209;28;20058;-49
2022/11/08 03:20:27;;;;;;;4.95;0.90;;;;;;;11.74;69.94;100816.50;4991519;28;20022;-48
2022/11/08 03:22:58;;;;;;;3.28;1.05;;;;;;;11.69;70.60;100812.81;4993061;28;20030;-48
2022/11/08 03:25:25;;;;;;;4.88;0.98;;;;;;;11.62;70.83;100821.72;4991549;28;20034;-49
2022/11/08 03:27:51;;;;;;;4.03;0.80;;;;;;;11.55;71.28;100817.44;4988244;28;20073;-50
2022/11/08 03:30:17;;;;;;;2.92;0.90;;;;;;;11.51;71.52;100835.78;4989303;28;20113;-48
2022/11/08 03:32:47;;;;;;;7.95;1.38;;;;;;;11.34;71.93;100850.69;4992440;28;20097;-51
2022/11/08 03:35:14;;;;;;;4.55;1.00;;;;;;;11.30;73.07;100820.81;4991193;28;20505;-47
2022/11/08 03:37:40;;;;;;;6.15;1.23;;;;;;;11.27;73.58;100823.91;4992755;28;20068;-50
2022/11/08 03:40:07;;;;;;;2.13;1.00;;;;;;;11.20;73.73;100833.00;4991616;28;20105;-49
2022/11/08 03:42:33;;;;;;;4.75;1.13;;;;;;;11.20;74.39;100846.38;4992392;28;20400;-49
2022/11/08 03:45:00;;;;;;;9.20;1.90;;;;;;;11.13;75.41;100849.09;4990064;28;20092;-52
2022/11/08 03:47:26;;;;;;;7.28;1.17;;;;;;;11.08;74.99;100832.81;4992557;28;20031;-51
2022/11/08 03:49:52;;;;;;;5.07;1.35;;;;;;;11.19;74.65;100837.53;4991110;28;20042;-48
2022/11/08 03:52:18;;;;;;;7.75;1.00;;;;;;;10.98;75.67;100822.53;4992143;28;20037;-49
2022/11/08 03:54:44;;;;;;;7.10;0.90;;;;;;;10.98;74.96;100827.88;4991018;28;20034;-54
2022/11/08 03:57:11;;;;;;;7.50;1.52;;;;;;;11.06;75.10;100826.84;4992668;28;20037;-48
2022/11/08 03:59:38;;;;;;;4.55;1.25;;;;;;;11.05;75.53;100823.34;4990946;28;20030;-50
2022/11/08 04:02:04;;;;;;;4.90;1.15;;;;;;;11.10;75.14;100804.81;4990501;28;20114;-48
2022/11/08 04:04:30;;;;;;;2.40;1.10;;;;;;;11.08;75.01;100800.69;4992524;28;20121;-48
2022/11/08 04:06:56;;;;;;;4.05;1.55;;;;;;;11.24;75.18;100794.03;4990916;28;20034;-48
2022/11/08 04:09:22;;;;;;;4.30;1.23;;;;;;;11.30;75.59;100794.00;4992224;28;20462;-50
2022/11/08 04:17:18;;;;;;;6.65;1.73;;;;;;;11.31;76.19;100779.56;4990872;28;20089;-51
2022/11/08 04:22:28;;;;;;;3.75;1.00;;;;;;;11.07;77.54;100791.81;4990875;28;20098;-50
2022/11/08 04:24:55;;;;;;;3.75;0.98;;;;;;;11.21;76.72;100783.72;4992500;28;20069;-49
2022/11/08 04:27:21;;;;;;;4.03;1.20;;;;;;;11.21;77.06;100779.19;4994667;28;20046;-51
2022/11/08 04:29:47;;;;;;;4.38;1.02;;;;;;;11.21;77.55;100784.56;4995944;28;20026;-51
2022/11/08 04:32:13;;;;;;;7.90;1.38;;;;;;;11.14;77.43;100785.63;4993353;28;20483;-50
2022/11/08 04:34:39;;;;;;;2.90;0.95;;;;;;;11.02;78.03;100780.09;4996191;28;20046;-50
2022/11/08 04:37:06;;;;;;;4.10;1.13;;;;;;;10.93;77.66;100781.34;4993977;28;20112;-48
2022/11/08 04:39:32;;;;;;;3.78;0.80;;;;;;;10.97;77.30;100778.03;4992725;28;20026;-48
2022/11/08 04:41:58;;;;;;;3.88;1.08;;;;;;;10.93;77.68;100789.38;4995715;28;20475;-49
2022/11/08 04:44:24;;;;;;;5.00;0.93;;;;;;;10.92;77.40;100785.06;4994473;28;20645;-49
2022/11/08 04:46:50;;;;;;;3.63;0.80;;;;;;;10.76;78.16;100786.31;4995774;28;20065;-47
2022/11/08 04:49:16;;;;;;;3.00;1.33;;;;;;;10.70;78.66;100784.47;4994609;28;20047;-48
2022/11/08 04:51:43;;;;;;;5.05;0.70;;;;;;;10.81;78.46;100781.97;4995257;28;20537;-51
2022/11/08 04:54:10;;;;;;;4.28;0.85;;;;;;;10.81;78.67;100778.47;4988634;28;20046;-49
2022/11/08 04:56:36;;;;;;;4.20;1.05;;;;;;;10.69;78.74;100777.47;4976405;28;20106;-48
2022/11/08 04:59:03;;;;;;;4.82;1.00;;;;;;;10.73;78.89;100768.81;4982193;28;20030;-48
2022/11/08 05:01:30;;;;;;;7.47;1.15;;;;;;;10.80;79.05;100768.81;4985659;28;20030;-45
2022/11/08 05:03:57;;;;;;;4.30;1.13;;;;;;;10.88;78.92;100771.25;4977088;28;20026;-48
2022/11/08 05:06:26;;;;;;;6.30;1.08;;;;;;;10.84;79.91;100768.19;4983560;28;20026;-48
2022/11/08 05:08:55;;;;;;;6.47;1.10;;;;;;;10.97;79.41;100769.19;4995621;28;20026;-47
2022/11/08 05:11:24;;;;;;;3.25;0.95;;;;;;;10.98;79.96;100762.78;4982390;28;20022;-48
2022/11/08 05:13:50;;;;;;;4.35;0.98;;;;;;;10.83;79.25;100771.09;4975648;28;20121;-51
2022/11/08 05:16:20;;;;;;;4.13;1.20;;;;;;;10.89;78.92;100764.06;4975982;28;20122;-52
2022/11/08 05:18:46;;;;;;;7.03;1.35;;;;;;;10.87;78.07;100771.47;4975838;28;20089;-49
2022/11/08 05:24:04;;;;;;;4.68;0.93;;;;;;;10.88;76.35;100771.25;4985161;28;20033;-48
2022/11/08 05:26:33;;;;;;;3.97;0.95;;;;;;;10.98;76.42;100762.78;4995089;28;20026;-48
2022/11/08 05:28:59;;;;;;;4.35;0.70;;;;;;;11.04;76.42;100764.63;4994905;28;20033;-49
2022/11/08 05:31:26;;;;;;;6.63;1.02;;;;;;;10.96;75.32;100764.88;4995199;28;20375;-54
2022/11/08 05:33:52;;;;;;;5.32;0.90;;;;;;;11.00;75.61;100755.38;4994670;28;20382;-52
2022/11/08 05:36:19;;;;;;;4.38;0.90;;;;;;;10.98;75.30;100760.09;4994590;28;20034;-53
2022/11/08 05:38:45;;;;;;;7.20;1.40;;;;;;;10.97;75.95;100759.28;4994941;28;20034;-48
2022/11/08 05:41:19;;;;;;;4.35;1.40;;;;;;;11.04;74.94;100760.09;4994120;28;20027;-49
2022/11/08 05:43:48;;;;;;;3.73;0.90;;;;;;;11.02;75.60;100750.63;4994608;28;20030;-49
2022/11/08 05:46:16;;;;;;;3.15;0.98;;;;;;;11.04;74.65;100749.38;4994694;28;20288;-46
2022/11/08 05:48:43;;;;;;;7.35;1.20;;;;;;;10.90;74.96;100755.81;4994382;28;20134;-47
2022/11/08 05:51:11;;;;;;;2.63;1.00;;;;;;;10.79;74.76;100746.56;4994495;28;20022;-46
2022/11/08 05:53:38;;;;;;;5.80;1.60;;;;;;;10.94;73.76;100740.97;4994314;28;20027;-46
2022/11/08 05:56:04;;;;;;;3.53;0.98;;;;;;;10.99;74.08;100745.69;4994707;28;20030;-48
2022/11/08 05:58:33;;;;;;;3.53;1.02;;;;;;;10.87;74.26;100742.00;4994112;28;20030;-47
2022/11/08 06:01:05;;;;;;;4.28;1.00;;;;;;;10.92;73.75;100732.31;4975152;28;20026;-47
2022/11/08 06:03:32;;;;;;;5.10;0.90;;;;;;;10.86;74.44;100743.06;4974766;28;20109;-48
2022/11/08 06:06:03;;;;;;;4.65;0.82;;;;;;;10.83;72.86;100736.28;4974906;28;20026;-51
2022/11/08 06:08:29;;;;;;;5.05;0.95;;;;;;;10.75;72.69;100753.38;4981010;28;20498;-48
2022/11/08 06:11:04;;;;;;;3.78;0.90;;;;;;;10.73;72.91;100739.38;4994908;28;20065;-47
2022/11/08 06:13:31;;;;;;;5.40;0.90;;;;;;;10.90;71.91;100746.97;4994527;28;20558;-47
2022/11/08 06:16:06;;;;;;;4.50;1.23;;;;;;;10.85;71.83;100726.16;4994663;28;20058;-49
2022/11/08 06:18:33;;;;;;;2.20;0.75;;;;;;;10.86;72.15;100732.34;4994538;28;20023;-50
2022/11/08 06:21:01;;;;;;;3.33;0.95;;;;;;;10.73;72.68;100725.19;4994308;28;20036;-48
2022/11/08 06:23:28;;;;;;;3.17;1.27;;;;;;;10.82;72.94;100716.69;4993926;28;20022;-48
2022/11/08 06:25:54;;;;;;;3.38;0.90;;;;;;;10.89;72.66;100710.50;4994260;28;20034;-52
2022/11/08 06:28:21;;;;;;;7.00;1.13;;;;;;;10.87;72.82;100708.03;4994194;28;20419;-48
2022/11/08 06:30:47;;;;;;;5.50;1.17;;;;;;;10.90;73.17;100704.13;4994009;28;20046;-47
2022/11/08 06:33:14;;;;;;;2.97;0.80;;;;;;;10.91;73.33;100697.72;4993847;28;20030;-48
2022/11/08 06:35:40;;;;;;;5.72;1.25;;;;;;;10.76;73.99;100696.09;4993825;28;20479;-48
2022/11/08 06:38:06;;;;;;;5.63;1.23;;;;;;;10.86;73.90;100689.50;4994183;28;20442;-50
2022/11/08 06:40:33;;;;;;;2.50;1.13;;;;;;;10.87;74.33;100683.91;4993851;28;20081;-48
2022/11/08 06:42:59;;;;;;;4.53;1.20;;;;;;;10.91;74.42;100673.63;4993598;28;20086;-48
2022/11/08 06:45:26;;;;;;;5.15;1.38;;;;;;;10.83;74.81;100669.34;4993618;28;20439;-48
2022/11/08 06:48:01;;;;;;;3.20;0.90;;;;;;;10.87;74.62;100677.75;4992792;28;20471;-48
2022/11/08 06:50:29;;;;;;;4.53;0.80;;;;;;;10.84;74.45;100660.25;4993761;28;20030;-47
2022/11/08 06:52:56;;;;;;;5.15;1.23;;;;;;;10.93;74.40;100674.22;4993310;28;20053;-47
2022/11/08 06:55:22;;;;;;;7.30;1.42;;;;;;;10.98;74.49;100674.41;4993581;28;20487;-47
2022/11/08 06:57:48;;;;;;;12.52;1.38;;;;;;;11.02;74.26;100679.13;4993561;28;20110;-47
2022/11/08 07:00:15;;;;;;;3.95;0.93;;;;;;;11.08;74.53;100677.47;4979245;28;20027;-48
2022/11/08 07:02:43;;;;;;;4.00;1.13;;;;;;;11.12;74.69;100681.38;4973891;28;20023;-49
2022/11/08 07:05:10;;;;;;;6.40;1.15;;;;;;;11.15;75.27;100682.78;4973686;28;20018;-51
2022/11/08 07:07:37;;;;;;;10.73;1.20;;;;;;;11.31;75.48;100683.09;4973758;28;20495;-49
2022/11/08 07:10:04;;;;;;;5.10;1.20;;;;;;;11.23;77.18;100679.88;4973835;28;20027;-52
2022/11/08 07:12:31;;;;;;;7.60;1.27;;;;;;;11.33;77.73;100681.06;4973778;28;20042;-50
2022/11/08 07:14:57;;;;;;;8.52;1.20;;;;;;;11.17;78.19;100686.91;4973716;28;20042;-50
2022/11/08 07:17:23;;;;;;;3.67;1.20;;;;;;;11.21;78.61;100684.59;4973724;28;20033;-48
2022/11/08 07:19:49;;;;;;;5.50;1.00;;;;;;;11.19;76.36;100684.81;4973662;28;20023;-48
2022/11/08 07:22:16;;;;;;;4.85;1.00;;;;;;;11.14;76.08;100681.13;4973535;28;20034;-48
2022/11/08 07:24:44;;;;;;;4.50;1.10;;;;;;;11.35;75.23;100683.50;4973454;28;20050;-51
2022/11/08 07:27:11;;;;;;;3.67;0.90;;;;;;;11.32;74.99;100671.34;4973560;28;20018;-51
2022/11/08 07:29:37;;;;;;;5.30;1.20;;;;;;;11.25;75.62;100683.16;4973469;28;20064;-50
2022/11/08 07:32:03;;;;;;;7.32;1.17;;;;;;;11.26;76.77;100684.78;4973369;28;20023;-49
2022/11/08 07:34:30;;;;;;;6.63;1.30;;;;;;;11.25;77.11;100683.97;4973513;28;20026;-51
2022/11/08 07:36:57;;;;;;;4.15;1.23;;;;;;;11.12;77.95;100677.88;4979730;28;20042;-48
2022/11/08 07:39:23;;;;;;;4.03;0.90;;;;;;;11.03;78.49;100670.06;4992841;28;20037;-49
2022/11/08 07:41:49;;;;;;;6.88;1.10;;;;;;;10.97;78.83;100667.41;4992633;28;20506;-47
2022/11/08 07:44:16;;;;;;;4.45;1.40;;;;;;;11.03;79.16;100659.34;4992454;28;20113;-47
2022/11/08 07:46:42;;;;;;;10.48;1.35;;;;;;;11.01;78.42;100657.94;4992950;28;20042;-51
2022/11/08 07:49:09;;;;;;;7.35;1.30;;;;;;;11.08;78.09;100661.38;4992401;28;20074;-48
2022/11/08 07:51:35;;;;;;;5.20;1.35;;;;;;;11.03;79.18;100654.00;4992628;28;20045;-47
2022/11/08 07:54:01;;;;;;;2.80;0.90;;;;;;;11.00;78.51;100658.97;4992267;28;20222;-50
2022/11/08 07:56:27;;;;;;;4.10;1.08;;;;;;;10.95;78.69;100640.03;4992757;28;20034;-49
2022/11/08 07:58:54;;;;;;;5.38;1.17;;;;;;;10.93;78.38;100639.41;4992623;28;20364;-50
2022/11/08 08:01:20;;;;;;;3.35;1.00;;;;;;;10.71;78.29;100629.00;4992504;28;20022;-47
2022/11/08 08:03:46;;;;;;;5.45;0.70;;;;;;;10.65;77.71;100613.78;4991007;28;20027;-47
2022/11/08 08:06:12;;;;;;;2.25;0.70;;;;;;;10.61;77.75;100609.91;4992182;28;20095;-51
2022/11/08 08:08:38;;;;;;;3.72;0.60;;;;;;;10.53;77.94;100616.28;4992478;28;20026;-49
2022/11/08 08:11:05;;;;;;;3.33;0.80;;;;;;;10.71;77.42;100617.47;4992538;28;20023;-51
2022/11/08 08:13:31;;;;;;;3.83;0.70;;;;;;;10.73;77.46;100613.56;4992283;28;20085;-49
2022/11/08 08:15:59;;;;;;;2.50;0.60;;;;;;;10.70;76.67;100610.47;4992339;28;20092;-50
2022/11/08 08:18:26;;;;;;;3.53;0.70;;;;;;;10.68;77.00;100601.84;4992323;28;20073;-50
2022/11/08 08:20:52;;;;;;;3.10;0.70;;;;;;;10.47;77.72;100597.59;4992661;28;20117;-50
2022/11/08 08:23:18;;;;;;;2.40;0.70;;;;;;;10.52;77.76;100595.09;4992117;28;20022;-48
2022/11/08 08:25:44;;;;;;;4.30;0.80;;;;;;;10.54;77.12;100585.00;4992072;28;20026;-48
2022/11/08 08:28:11;;;;;;;5.38;0.73;;;;;;;10.48;77.71;100580.50;4992348;28;20030;-51
2022/11/08 08:30:37;;;;;;;4.80;0.90;;;;;;;10.37;78.92;100584.66;4992370;28;20041;-48
2022/11/08 08:33:11;;;;;;;2.45;0.70;;;;;;;10.45;78.91;100581.75;4992060;28;20030;-49
2022/11/08 08:35:37;;;;;;;3.38;0.80;;;;;;;10.37;79.17;100568.59;4991892;28;20027;-48
2022/11/08 08:38:05;;;;;;;3.88;1.00;;;;;;;10.34;78.71;100561.00;4992155;28;20030;-49
2022/11/08 08:40:33;;;;;;;5.25;1.08;;;;;;;10.35;79.32;100561.84;4992053;28;20356;-48
2022/11/08 08:43:02;;;;;;;3.85;0.90;;;;;;;10.31;78.45;100556.06;4991945;28;20027;-51
2022/11/08 08:45:28;;;;;;;4.75;0.98;;;;;;;10.24;78.48;100542.72;4991878;28;20026;-50
2022/11/08 08:47:55;;;;;;;4.28;1.13;;;;;;;10.30;78.29;100547.22;4991871;28;20023;-48
2022/11/08 08:50:22;;;;;;;5.45;0.98;;;;;;;10.38;78.16;100535.44;4992172;28;20475;-50
2022/11/08 08:52:49;;;;;;;3.72;1.15;;;;;;;10.35;77.12;100546.59;4992076;28;20023;-48
2022/11/08 08:55:15;;;;;;;3.13;0.88;;;;;;;10.38;77.70;100538.13;4992064;28;20030;-48
2022/11/08 08:57:45;;;;;;;1.90;0.85;;;;;;;10.20;77.28;100536.09;4991859;28;20359;-51
2022/11/08 09:00:14;;;;;;;5.63;0.73;;;;;;;10.29;77.77;100532.22;4978089;28;20031;-47
2022/11/08 09:02:41;;;;;;;3.75;1.00;;;;;;;10.37;77.64;100533.81;4971099;28;20027;-51
2022/11/08 09:05:08;;;;;;;5.22;1.25;;;;;;;10.41;77.09;100534.22;4972799;28;20073;-50
2022/11/08 09:07:35;;;;;;;2.67;0.80;;;;;;;10.42;76.49;100539.34;4972464;28;20023;-48
2022/11/08 09:10:01;;;;;;;3.05;0.90;;;;;;;10.35;76.94;100535.06;4972495;28;20138;-52
2022/11/08 09:12:28;;;;;;;2.13;0.80;;;;;;;10.25;76.58;100532.84;4974842;28;20495;-47
2022/11/08 09:14:55;;;;;;;1.50;0.70;;;;;;;10.24;77.36;100532.03;4976146;28;20034;-50
2022/11/08 09:17:21;;;;;;;2.30;0.70;;;;;;;10.35;77.25;100530.53;4975971;28;20050;-48
2022/11/08 09:19:47;;;;;;;1.90;0.60;;;;;;;10.22;78.24;100538.59;4975927;28;20034;-52
2022/11/08 09:22:14;;;;;;;3.83;0.88;;;;;;;10.19;78.62;100518.44;4975673;28;20030;-50
2022/11/08 09:24:40;;;;;;;7.50;1.02;;;;;;;10.23;78.57;100514.34;4974468;28;20182;-51
2022/11/08 09:27:06;;;;;;;3.20;0.90;;;;;;;10.02;79.01;100506.56;4975927;28;20391;-49
2022/11/08 09:29:33;;;;;;;3.45;0.80;;;;;;;10.12;79.23;100492.75;4975867;28;20035;-49
2022/11/08 09:32:00;;;;;;;2.72;1.00;;;;;;;9.86;80.20;100496.31;4975389;28;20089;-51
2022/11/08 09:34:27;;;;;;;4.85;0.68;;;;;;;9.87;80.67;100492.59;4975592;28;20560;-50
2022/11/08 09:36:53;;;;;;;2.20;0.90;;;;;;;9.82;81.49;100487.06;4975707;28;20042;-52
2022/11/08 09:39:19;;;;;;;3.05;0.80;;;;;;;9.85;81.30;100484.00;4975827;28;20165;-52
2022/11/08 09:42:30;;;;;;;1.77;0.70;;;;;;;9.79;81.66;100483.78;4975280;28;20031;-49
2022/11/08 09:45:14;;;;;;;3.42;0.60;;;;;;;9.82;81.92;100484.41;4966950;28;20043;-49
2022/11/08 09:47:45;;;;;;;2.38;0.68;;;;;;;9.82;82.34;100473.69;4975352;28;20083;-50
2022/11/08 09:50:30;;;;;;;3.05;0.60;;;;;;;9.86;82.09;100480.28;4975251;28;20053;-47
2022/11/08 09:53:12;;;;;;;;;;;;;;;9.68;82.36;100478.28;4975496;28;20050;-47
2022/11/08 09:55:48;;;;;;;3.97;0.70;;;;;;;9.77;82.35;100488.53;4975196;28;19920;-47
2022/11/08 09:58:27;;;;;;;2.10;0.38;;;;;;;9.70;82.62;100486.88;4975162;28;20070;-49
2022/11/08 10:00:53;;;;;;;2.85;0.70;;;;;;;9.76;82.15;100481.53;4975381;28;20074;-51
2022/11/08 10:03:23;;;;;;;2.00;0.70;;;;;;;9.72;82.75;100482.19;4974694;28;20019;-49
2022/11/08 10:06:02;;;;;;;2.58;0.65;;;;;;;9.62;83.43;100485.28;4975039;28;20042;-49
2022/11/08 10:08:34;;;;;;;1.73;0.65;;;;;;;9.64;83.99;100491.22;4974858;28;20395;-50
2022/11/08 10:14:11;;;;;;;2.17;0.70;;;;;;;9.72;83.74;100466.97;5768625;23;20144;-45
2022/11/08 10:16:58;;;;;;;1.23;0.60;;;;;;;9.60;83.84;100465.13;4990051;28;20040;-47
2022/11/08 10:19:55;;;;;;;1.65;0.50;;;;;;;9.63;83.38;100462.84;4984216;28;20046;-46
2022/11/08 10:22:41;;;;;;;2.05;0.47;;;;;;;9.63;83.17;100449.50;4973864;28;20035;-46
2022/11/08 10:25:23;;;;;;;0.85;0.35;;;;;;;9.62;83.38;100453.22;4974935;28;20034;-48
2022/11/08 10:27:54;;;;;;;1.05;0.40;;;;;;;9.70;82.18;100447.63;4974605;28;20027;-48
2022/11/08 10:30:33;;;;;;;1.13;0.50;;;;;;;9.80;82.22;100444.53;4974613;28;20471;-48
2022/11/08 10:33:00;;;;;;;2.08;0.60;;;;;;;9.86;82.71;100442.84;4989301;28;20394;-48
2022/11/08 10:35:36;;;;;;;2.40;0.40;;;;;;;9.71;82.71;100446.59;4974616;28;20085;-48
2022/11/08 10:38:12;;;;;;;1.55;0.40;;;;;;;9.56;83.23;100453.22;4974599;28;20027;-48
2022/11/08 10:41:06;;;;;;;2.38;0.68;;;;;;;9.62;83.42;100455.06;4974576;28;20383;-50
2022/11/08 10:43:39;;;;;;;1.60;0.60;;;;;;;9.64;83.35;100444.97;4974161;28;20023;-48
2022/11/08 10:46:35;;;;;;;6.57;0.90;;;;;;;9.38;84.84;100437.81;4974512;28;20027;-51
2022/11/08 10:49:21;;;;;;;3.63;0.60;;;;;;;9.28;84.57;100442.78;4955377;28;20030;-49
2022/11/08 10:51:52;;;;;;;2.90;0.40;;;;;;;9.28;85.14;100437.44;4973991;28;20089;-50
2022/11/08 10:54:56;;;;;;;2.15;0.52;;;;;;;9.29;85.43;100425.72;4988422;28;20041;-48
2022/11/08 10:57:42;;;;;;;1.77;0.40;;;;;;;9.26;85.82;100422.44;4993705;28;20486;-49
2022/11/08 11:00:27;;;;;;;3.55;0.50;;;;;;;9.24;85.99;100402.31;4993242;28;20058;-48
2022/11/08 11:03:11;;;;;;;6.15;0.50;;;;;;;9.25;85.41;100390.59;4978372;28;20026;-50
2022/11/08 11:05:41;;;;;;;0.45;0.40;;;;;;;9.34;84.64;100381.34;4973965;28;20065;-48
2022/11/08 11:08:07;;;;;;;1.45;0.38;;;;;;;9.24;85.49;100362.25;4973851;28;20027;-50
2022/11/08 11:10:37;;;;;;;1.92;0.40;;;;;;;9.16;85.62;100349.97;4973841;28;20057;-49
2022/11/08 11:13:22;;;;;;;0.13;0.13;;;;;;;9.14;86.01;100348.50;4973589;28;20031;-48
2022/11/08 11:15:57;;;;;;;0.88;0.30;;;;;;;9.21;84.88;100346.63;4973656;28;20043;-50
2022/11/08 11:18:29;;;;;;;0.47;0.20;;;;;;;9.15;84.18;100334.94;4983182;28;20617;-49
2022/11/08 11:21:17;;;;;;;1.13;0.28;;;;;;;9.08;84.86;100320.78;4992804;28;20414;-50
2022/11/08 11:23:48;;;;;;;3.20;0.40;;;;;;;9.02;84.85;100308.28;4992655;28;20390;-48
2022/11/08 11:26:28;;;;;;;2.25;0.30;;;;;;;8.94;85.27;100305.84;4992783;28;20371;-49
2022/11/08 11:29:04;;;;;;;1.75;0.50;;;;;;;9.03;85.58;100291.22;4993162;28;20052;-49
2022/11/08 11:31:30;;;;;;;;;;;;;;;9.22;84.91;100293.03;4993531;28;20446;-52
2022/11/08 11:33:57;;;;;;;2.30;0.30;;;;;;;9.06;84.63;100274.81;4992459;28;19999;-50
2022/11/08 11:36:29;;;;;;;0.25;0.15;;;;;;;9.01;84.15;100279.94;4992755;28;20028;-48
2022/11/08 11:39:03;;;;;;;0.95;0.28;;;;;;;8.93;84.79;100270.31;4992996;28;20029;-48
2022/11/08 11:41:39;;;;;;;0.73;0.20;;;;;;;8.86;84.26;100266.84;4992848;28;20026;-47
2022/11/08 11:44:39;;;;;;;0.70;0.15;;;;;;;8.93;82.92;100275.63;4992714;28;20605;-49
2022/11/08 11:47:23;;;;;;;1.65;0.10;;;;;;;8.83;83.48;100277.94;4992733;28;20116;-50
2022/11/08 11:49:52;;;;;;;0.30;0.20;;;;;;;8.72;83.10;100282.06;4992951;28;20019;-49
2022/11/08 11:52:18;;;;;;;0.85;0.10;;;;;;;8.81;83.22;100298.66;4992406;28;20165;-51
2022/11/08 11:54:48;;;;;;;2.08;0.30;;;;;;;8.67;83.72;100295.22;4992673;28;20032;-49
2022/11/08 11:57:24;;;;;;;2.40;0.20;;;;;;;8.76;84.13;100293.13;4981940;28;20537;-50
2022/11/08 12:00:09;;;;;;;;;;;;;;;8.82;83.96;100296.81;4990048;28;20038;-50